createdAt,value
2017-10-11T00:06:28.329Z,7.69
2017-10-11T00:16:02.808Z,7.69
2017-10-11T00:25:34.134Z,7.40
2017-10-11T00:35:13.716Z,7.30
2017-10-11T00:44:48.774Z,7.10
2017-10-11T00:54:25.605Z,7.10
2017-10-11T01:03:59.270Z,7.20
2017-10-11T01:13:33.944Z,7.10
2017-10-11T01:23:10.680Z,6.91
2017-10-11T01:32:46.339Z,7.01
2017-10-11T01:42:19.980Z,7.00
2017-10-11T01:51:55.842Z,7.40
2017-10-11T02:01:30.652Z,7.30
2017-10-11T02:11:05.270Z,7.20
2017-10-11T02:20:40.212Z,7.10
2017-10-11T02:30:16.134Z,7.10
2017-10-11T02:39:49.023Z,6.91
2017-10-11T02:49:26.002Z,6.61
2017-10-11T02:58:58.998Z,6.52
2017-10-11T03:08:33.185Z,6.42
2017-10-11T03:18:16.348Z,6.32
2017-10-11T03:27:49.390Z,6.22
2017-10-11T03:37:24.470Z,6.12
2017-10-11T03:47:02.088Z,6.13
2017-10-11T03:56:42.477Z,6.13
2017-10-11T04:06:13.875Z,6.12
2017-10-11T04:15:48.617Z,5.93
2017-10-11T04:25:23.140Z,5.83
2017-10-11T04:34:54.606Z,5.93
2017-10-11T04:44:31.572Z,5.93
2017-10-11T04:54:08.895Z,5.83
2017-10-11T05:03:46.068Z,5.93
2017-10-11T05:13:24.258Z,5.93
2017-10-11T05:23:00.524Z,5.83
2017-10-11T05:32:38.529Z,5.73
2017-10-11T05:42:15.707Z,5.93
2017-10-11T05:51:53.058Z,6.03
2017-10-11T06:01:35.663Z,6.42
2017-10-11T06:11:07.040Z,6.61
2017-10-11T06:20:44.542Z,6.91
2017-10-11T06:30:22.029Z,7.30
2017-10-11T06:40:00.097Z,7.69
2017-10-11T06:49:38.457Z,8.08
2017-10-11T06:59:16.217Z,8.47
2017-10-11T07:08:53.717Z,9.06
2017-10-11T07:18:32.703Z,9.45
2017-10-11T07:28:11.688Z,9.84
2017-10-11T07:37:49.942Z,10.33
2017-10-11T07:47:28.062Z,10.82
2017-10-11T07:57:09.742Z,11.41
2017-10-11T08:06:46.793Z,11.90
2017-10-11T08:16:19.122Z,12.38
2017-10-11T08:26:01.083Z,13.07
2017-10-11T08:35:37.471Z,13.36
2017-10-11T08:45:13.870Z,14.05
2017-10-11T08:54:45.950Z,14.63
2017-10-11T09:04:25.300Z,15.32
2017-10-11T09:14:03.376Z,15.81
2017-10-11T09:23:50.824Z,16.20
2017-10-11T09:33:19.122Z,16.20
2017-10-11T09:42:57.501Z,16.79
2017-10-11T09:52:35.761Z,17.27
2017-10-11T10:02:14.156Z,16.98
2017-10-11T10:11:52.742Z,17.37
2017-10-11T10:21:36.415Z,17.57
2017-10-11T10:31:08.508Z,17.86
2017-10-11T10:40:50.618Z,17.86
2017-10-11T10:50:23.081Z,20.60
2017-10-11T11:00:01.889Z,22.65
2017-10-11T11:09:40.154Z,20.99
2017-10-11T11:19:18.203Z,20.31
2017-10-11T11:28:56.083Z,20.31
2017-10-11T11:38:38.085Z,21.09
2017-10-11T11:48:10.863Z,21.48
2017-10-11T11:57:50.386Z,21.38
2017-10-11T12:07:28.182Z,21.28
2017-10-11T12:17:06.292Z,22.56
2017-10-11T12:26:44.476Z,22.07
2017-10-11T12:36:23.082Z,21.48
2017-10-11T12:46:01.527Z,21.87
2017-10-11T12:55:40.331Z,22.26
2017-10-11T13:05:18.334Z,23.14
2017-10-11T13:14:57.649Z,24.22
2017-10-11T13:24:37.548Z,23.34
2017-10-11T13:34:16.347Z,23.73
2017-10-11T13:43:52.698Z,22.75
2017-10-11T13:53:29.710Z,22.65
2017-10-11T14:03:08.912Z,20.89
2017-10-11T14:12:44.943Z,20.31
2017-10-11T14:22:22.122Z,19.62
2017-10-11T14:31:59.090Z,19.52
2017-10-11T14:41:36.204Z,19.23
2017-10-11T14:51:12.836Z,18.84
2017-10-11T15:00:50.532Z,18.45
2017-10-11T15:10:28.583Z,17.96
2017-10-11T15:20:05.317Z,17.67
2017-10-11T15:29:42.136Z,17.27
2017-10-11T15:39:19.028Z,16.88
2017-10-11T15:48:55.336Z,16.20
2017-10-11T15:58:32.168Z,15.71
2017-10-11T16:08:08.723Z,14.83
2017-10-11T16:17:44.900Z,14.05
2017-10-11T16:27:21.228Z,13.46
2017-10-11T16:36:58.127Z,13.27
2017-10-11T16:46:38.897Z,12.58
2017-10-11T16:56:10.029Z,12.29
2017-10-11T17:05:50.616Z,11.99
2017-10-11T17:15:21.832Z,11.70
2017-10-11T17:24:58.600Z,11.31
2017-10-11T17:34:39.871Z,11.11
2017-10-11T17:44:15.086Z,10.92
2017-10-11T17:53:46.037Z,10.82
2017-10-11T18:03:22.891Z,10.53
2017-10-11T18:13:03.405Z,10.23
2017-10-11T18:22:35.160Z,10.04
2017-10-11T18:32:15.728Z,9.84
2017-10-11T18:41:47.704Z,9.84
2017-10-11T18:51:28.715Z,9.65
2017-10-11T19:01:00.098Z,9.55
2017-10-11T19:10:40.741Z,9.45
2017-10-11T19:20:12.698Z,9.35
2017-10-11T19:29:49.760Z,9.16
2017-10-11T19:39:27.078Z,9.06
2017-10-11T19:49:04.642Z,9.06
2017-10-11T19:58:45.372Z,8.86
2017-10-11T20:08:21.787Z,8.67
2017-10-11T20:17:55.971Z,8.57
2017-10-11T20:27:30.977Z,8.47
2017-10-11T20:37:01.881Z,8.57
2017-10-11T20:46:39.108Z,8.47
2017-10-11T20:56:17.250Z,8.37
2017-10-11T21:05:58.367Z,8.37
2017-10-11T21:15:29.954Z,8.18
2017-10-11T21:25:10.950Z,8.18
2017-10-11T21:34:46.627Z,7.98
2017-10-11T21:44:22.116Z,7.88
2017-10-11T21:53:57.426Z,7.89
2017-10-11T22:03:28.702Z,7.69
2017-10-11T22:13:09.759Z,7.59
2017-10-11T22:22:40.803Z,7.59
2017-10-11T22:32:22.026Z,7.49
2017-10-11T22:41:57.096Z,7.49
2017-10-11T22:51:28.382Z,7.59
2017-10-11T23:01:04.844Z,7.40
2017-10-11T23:10:47.147Z,7.20
2017-10-11T23:20:18.523Z,7.20
2017-10-11T23:29:59.687Z,7.10
2017-10-11T23:39:31.067Z,7.10
2017-10-11T23:49:08.179Z,7.01
2017-10-11T23:58:48.936Z,6.91
